createdAt,value
2018-05-02T00:00:09.253Z,99329.80
2018-05-02T00:00:40.492Z,99334.88
2018-05-02T00:01:11.696Z,99233.80
2018-05-02T00:01:42.949Z,99330.20
2018-05-02T00:02:14.179Z,99331.48
2018-05-02T00:02:45.394Z,99330.17
2018-05-02T00:03:16.598Z,99334.95
2018-05-02T00:03:47.827Z,99330.33
2018-05-02T00:04:19.045Z,99336.08
2018-05-02T00:04:50.256Z,99335.78
2018-05-02T00:05:21.468Z,99335.45
2018-05-02T00:05:52.683Z,99338.47
2018-05-02T00:06:23.916Z,99329.74
2018-05-02T00:06:55.124Z,99335.20
2018-05-02T00:07:26.378Z,99336.18
2018-05-02T00:07:57.639Z,99329.34
2018-05-02T00:08:28.865Z,99329.34
2018-05-02T00:09:00.070Z,99332.52
2018-05-02T00:09:31.304Z,99335.84
2018-05-02T00:10:02.535Z,99333.12
2018-05-02T00:10:33.786Z,99335.01
2018-05-02T00:11:05.032Z,99335.06
2018-05-02T00:11:36.256Z,99345.25
2018-05-02T00:12:07.483Z,99331.94
2018-05-02T00:12:38.709Z,99340.34
2018-05-02T00:13:09.931Z,99340.77
2018-05-02T00:13:41.211Z,99334.62
2018-05-02T00:14:12.497Z,99334.14
2018-05-02T00:14:43.719Z,99336.09
2018-05-02T00:15:14.968Z,99331.75
2018-05-02T00:15:46.170Z,99332.66
2018-05-02T00:16:17.389Z,99336.14
2018-05-02T00:16:48.605Z,99330.77
2018-05-02T00:17:19.817Z,99335.12
2018-05-02T00:17:51.073Z,99335.20
2018-05-02T00:18:22.310Z,99332.87
2018-05-02T00:18:53.526Z,99326.62
2018-05-02T00:19:24.740Z,99331.84
2018-05-02T00:19:55.953Z,99328.42
2018-05-02T00:20:27.165Z,99325.95
2018-05-02T00:20:58.381Z,99329.35
2018-05-02T00:21:29.591Z,99324.97
2018-05-02T00:22:00.802Z,99328.52
2018-05-02T00:22:32.021Z,99330.37
2018-05-02T00:23:03.278Z,99324.72
2018-05-02T00:23:34.521Z,99325.69
2018-05-02T00:24:05.801Z,99324.03
2018-05-02T00:24:37.077Z,99325.88
2018-05-02T00:25:08.323Z,99326.33
2018-05-02T00:25:39.515Z,99325.92
2018-05-02T00:26:10.722Z,99326.37
2018-05-02T00:26:41.928Z,99328.75
2018-05-02T00:27:13.122Z,99328.80
2018-05-02T00:27:44.329Z,99326.34
2018-05-02T00:28:15.553Z,99330.45
2018-05-02T00:28:46.892Z,99321.22
2018-05-02T00:29:18.184Z,99323.91
2018-05-02T00:29:49.392Z,99323.66
2018-05-02T00:30:20.645Z,99320.25
2018-05-02T00:30:51.845Z,99319.86
2018-05-02T00:31:23.132Z,99319.86
2018-05-02T00:31:54.350Z,99317.70
2018-05-02T00:32:25.572Z,99326.48
2018-05-02T00:32:56.785Z,99319.06
2018-05-02T00:33:28.006Z,99311.66
2018-05-02T00:33:59.224Z,99317.44
2018-05-02T00:34:30.471Z,99319.70
2018-05-02T00:35:01.691Z,99319.70
2018-05-02T00:35:32.901Z,99312.73
2018-05-02T00:36:04.150Z,99317.50
2018-05-02T00:36:35.378Z,99317.80
2018-05-02T00:37:06.569Z,99317.02
2018-05-02T00:37:37.789Z,99315.90
2018-05-02T00:38:09.147Z,99318.23
2018-05-02T00:38:40.367Z,99318.36
2018-05-02T00:39:11.598Z,99318.31
2018-05-02T00:39:42.813Z,99319.17
2018-05-02T00:40:14.021Z,99322.94
2018-05-02T00:40:45.239Z,99317.28
2018-05-02T00:41:16.470Z,99314.20
2018-05-02T00:41:47.685Z,99315.52
2018-05-02T00:42:18.878Z,99316.36
2018-05-02T00:42:50.080Z,99312.50
2018-05-02T00:43:21.320Z,99311.48
2018-05-02T00:43:52.533Z,99312.22
2018-05-02T00:44:23.744Z,99314.07
2018-05-02T00:44:54.959Z,99316.75
2018-05-02T00:45:26.201Z,99312.28
2018-05-02T00:45:57.413Z,99309.29
2018-05-02T00:46:28.668Z,99310.80
2018-05-02T00:46:59.880Z,99307.15
2018-05-02T00:47:31.094Z,99304.09
2018-05-02T00:48:02.306Z,99309.00
2018-05-02T00:48:33.515Z,99309.48
2018-05-02T00:49:04.792Z,99307.28
2018-05-02T00:49:36.012Z,99305.06
2018-05-02T00:50:07.217Z,99311.63
2018-05-02T00:50:38.477Z,99312.61
2018-05-02T00:51:09.687Z,99308.64
2018-05-02T00:51:40.887Z,99309.05
2018-05-02T00:52:12.097Z,99315.53
2018-05-02T00:52:43.309Z,99312.91
2018-05-02T00:53:14.561Z,99311.47
2018-05-02T00:53:45.784Z,99312.48
2018-05-02T00:54:17.063Z,99313.84
2018-05-02T00:54:48.250Z,99305.65
2018-05-02T00:55:19.453Z,99314.03
2018-05-02T00:55:50.675Z,99308.38
2018-05-02T00:56:21.884Z,99313.24
2018-05-02T00:56:53.081Z,99313.64
2018-05-02T00:57:24.285Z,99316.41
2018-05-02T00:57:55.482Z,99317.34
2018-05-02T00:58:26.689Z,99314.67
2018-05-02T00:58:57.909Z,99318.52
2018-05-02T00:59:29.157Z,99310.59
2018-05-02T01:00:00.421Z,99311.03
2018-05-02T01:00:31.645Z,99309.77
2018-05-02T01:01:02.853Z,99316.47
2018-05-02T01:01:34.091Z,99314.25
2018-05-02T01:02:05.312Z,99312.93
2018-05-02T01:02:36.526Z,99319.56
2018-05-02T01:03:07.736Z,99318.23
2018-05-02T01:03:38.942Z,99323.94
2018-05-02T01:04:10.219Z,99316.57
2018-05-02T01:04:41.432Z,99319.21
2018-05-02T01:05:12.614Z,99314.04
2018-05-02T01:05:43.868Z,99314.30
2018-05-02T01:06:15.077Z,99315.62
2018-05-02T01:06:46.292Z,99308.25
2018-05-02T01:07:17.487Z,99319.78
2018-05-02T01:07:48.702Z,99314.52
2018-05-02T01:08:19.953Z,99312.38
2018-05-02T01:08:51.205Z,99314.62
2018-05-02T01:09:22.430Z,99315.01
2018-05-02T01:09:53.650Z,99314.27
2018-05-02T01:10:24.921Z,99310.05
2018-05-02T01:10:56.164Z,99310.00
2018-05-02T01:11:27.375Z,99311.23
2018-05-02T01:11:58.634Z,99317.89
2018-05-02T01:12:29.849Z,99319.30
2018-05-02T01:13:01.068Z,99323.55
2018-05-02T01:13:32.281Z,99316.53
2018-05-02T01:14:03.505Z,99316.93
2018-05-02T01:14:34.717Z,99318.29
2018-05-02T01:15:05.972Z,99320.39
2018-05-02T01:15:37.194Z,99319.95
2018-05-02T01:16:08.436Z,99314.82
2018-05-02T01:16:39.658Z,99314.39
2018-05-02T01:17:10.909Z,99320.08
2018-05-02T01:17:42.113Z,99314.00
2018-05-02T01:18:13.352Z,99313.07
2018-05-02T01:18:44.556Z,99313.03
2018-05-02T01:19:15.819Z,99315.52
2018-05-02T01:19:47.012Z,99317.58
2018-05-02T01:20:18.269Z,99315.86
2018-05-02T01:20:49.528Z,99313.67
2018-05-02T01:21:20.743Z,99314.16
2018-05-02T01:21:52.009Z,99315.38
2018-05-02T01:22:23.224Z,99315.30
2018-05-02T01:22:54.444Z,99310.81
2018-05-02T01:23:25.669Z,99313.41
2018-05-02T01:23:56.877Z,99315.99
2018-05-02T01:24:28.211Z,99321.69
2018-05-02T01:24:59.433Z,99323.05
2018-05-02T01:25:30.646Z,99312.17
2018-05-02T01:26:01.900Z,99314.37
2018-05-02T01:26:33.113Z,99317.52
2018-05-02T01:27:04.337Z,99314.02
2018-05-02T01:27:35.556Z,99310.03
2018-05-02T01:28:06.824Z,99315.73
2018-05-02T01:28:38.077Z,99313.49
2018-05-02T01:29:09.359Z,99312.27
2018-05-02T01:29:40.564Z,99306.62
2018-05-02T01:30:11.779Z,99311.48
2018-05-02T01:30:42.996Z,99313.81
2018-05-02T01:31:14.213Z,99320.03
2018-05-02T01:31:45.462Z,99318.81
2018-05-02T01:32:16.686Z,99321.05
2018-05-02T01:32:47.902Z,99315.48
2018-05-02T01:33:19.120Z,99313.82
2018-05-02T01:33:50.324Z,99313.56
2018-05-02T01:34:21.591Z,99308.88
2018-05-02T01:34:52.976Z,99320.63
2018-05-02T01:35:24.198Z,99310.02
2018-05-02T01:35:55.424Z,99316.15
2018-05-02T01:36:26.662Z,99312.64
2018-05-02T01:36:57.878Z,99320.19
2018-05-02T01:37:29.133Z,99313.62
2018-05-02T01:38:00.332Z,99313.22
2018-05-02T01:38:31.542Z,99313.66
2018-05-02T01:39:02.752Z,99321.63
2018-05-02T01:39:33.974Z,99313.70
2018-05-02T01:40:05.203Z,99312.00
2018-05-02T01:40:36.413Z,99312.95
2018-05-02T01:41:07.625Z,99305.99
2018-05-02T01:41:38.846Z,99317.39
2018-05-02T01:42:10.067Z,99317.08
2018-05-02T01:42:41.316Z,99314.98
2018-05-02T01:43:12.506Z,99314.72
2018-05-02T01:43:43.717Z,99310.34
2018-05-02T01:44:14.982Z,99314.80
2018-05-02T01:44:46.186Z,99309.12
2018-05-02T01:45:17.401Z,99316.61
2018-05-02T01:45:48.619Z,99315.34
2018-05-02T01:46:19.825Z,99311.05
2018-05-02T01:46:51.029Z,99315.38
2018-05-02T01:47:22.290Z,99320.11
2018-05-02T01:47:53.495Z,99320.11
2018-05-02T01:48:24.693Z,99319.84
2018-05-02T01:48:55.915Z,99325.45
2018-05-02T01:49:27.159Z,99325.77
2018-05-02T01:49:58.349Z,99316.08
2018-05-02T01:50:29.567Z,99319.98
2018-05-02T01:51:00.781Z,99316.55
2018-05-02T01:51:32.003Z,99320.11
2018-05-02T01:52:03.242Z,99321.42
2018-05-02T01:52:34.481Z,99325.36
2018-05-02T01:53:05.693Z,99321.03
2018-05-02T01:53:36.901Z,99318.01
2018-05-02T01:54:08.108Z,99323.05
2018-05-02T01:54:39.362Z,99319.98
2018-05-02T01:55:10.613Z,99315.73
2018-05-02T01:55:41.857Z,99324.14
2018-05-02T01:56:13.068Z,99322.83
2018-05-02T01:56:44.297Z,99324.63
2018-05-02T01:57:15.523Z,99323.27
2018-05-02T01:57:46.752Z,99321.99
2018-05-02T01:58:17.962Z,99318.58
2018-05-02T01:58:49.184Z,99322.22
2018-05-02T01:59:20.421Z,99324.54
2018-05-02T01:59:51.682Z,99322.39
2018-05-02T02:00:22.918Z,99322.43
2018-05-02T02:00:54.132Z,99325.94
2018-05-02T02:01:25.359Z,99320.77
2018-05-02T02:01:56.567Z,99315.47
2018-05-02T02:02:27.852Z,99323.80
2018-05-02T02:02:59.102Z,99319.16
2018-05-02T02:03:30.314Z,99319.98
2018-05-02T02:04:01.529Z,99323.41
2018-05-02T02:04:32.737Z,99322.43
2018-05-02T02:05:03.967Z,99326.86
2018-05-02T02:05:35.176Z,99328.03
2018-05-02T02:06:06.385Z,99330.70
2018-05-02T02:06:37.594Z,99332.50
2018-05-02T02:07:08.857Z,99332.02
2018-05-02T02:07:40.085Z,99334.66
2018-05-02T02:08:11.296Z,99331.67
2018-05-02T02:08:42.548Z,99330.50
2018-05-02T02:09:13.762Z,99330.19
2018-05-02T02:09:44.976Z,99333.47
2018-05-02T02:10:16.195Z,99339.33
2018-05-02T02:10:47.410Z,99333.30
2018-05-02T02:11:18.628Z,99334.73
2018-05-02T02:11:49.893Z,99332.67
2018-05-02T02:12:21.149Z,99334.11
2018-05-02T02:12:52.361Z,99331.05
2018-05-02T02:13:23.579Z,99330.61
2018-05-02T02:13:54.792Z,99331.48
2018-05-02T02:14:25.993Z,99333.72
2018-05-02T02:14:57.209Z,99326.76
2018-05-02T02:15:28.481Z,99333.45
2018-05-02T02:15:59.692Z,99328.28
2018-05-02T02:16:30.896Z,99333.23
2018-05-02T02:17:02.140Z,99333.31
2018-05-02T02:17:33.345Z,99336.49
2018-05-02T02:18:04.552Z,99337.77
2018-05-02T02:18:35.772Z,99339.60
2018-05-02T02:19:06.980Z,99337.85
2018-05-02T02:19:38.199Z,99337.98
2018-05-02T02:20:09.414Z,99336.31
2018-05-02T02:20:40.644Z,99339.38
2018-05-02T02:21:11.868Z,99334.52
2018-05-02T02:21:43.125Z,99334.48
2018-05-02T02:22:14.360Z,99337.50
2018-05-02T02:22:45.611Z,99338.37
2018-05-02T02:23:16.831Z,99336.23
2018-05-02T02:23:48.041Z,99340.60
2018-05-02T02:24:19.264Z,99334.95
2018-05-02T02:24:50.491Z,99336.75
2018-05-02T02:25:21.713Z,99339.38
2018-05-02T02:25:52.932Z,99341.12
2018-05-02T02:26:24.141Z,99335.95
2018-05-02T02:26:55.398Z,99335.12
2018-05-02T02:27:26.600Z,99339.55
2018-05-02T02:27:57.805Z,99342.17
2018-05-02T02:28:29.011Z,99337.80
2018-05-02T02:29:00.237Z,99342.20
2018-05-02T02:29:31.460Z,99339.66
2018-05-02T02:30:02.663Z,99335.81
2018-05-02T02:30:33.882Z,99340.23
2018-05-02T02:31:05.089Z,99340.23
2018-05-02T02:31:36.297Z,99341.50
2018-05-02T02:32:07.545Z,99346.31
2018-05-02T02:32:38.752Z,99345.39
2018-05-02T02:33:09.968Z,99346.63
2018-05-02T02:33:41.198Z,99346.63
2018-05-02T02:34:12.450Z,99344.09
2018-05-02T02:34:43.652Z,99346.83
2018-05-02T02:35:14.858Z,99349.59
2018-05-02T02:35:46.076Z,99342.27
2018-05-02T02:36:17.281Z,99338.45
2018-05-02T02:36:48.488Z,99343.83
2018-05-02T02:37:19.697Z,99342.47
2018-05-02T02:37:50.918Z,99339.38
2018-05-02T02:38:22.160Z,99345.06
2018-05-02T02:38:53.407Z,99336.39
2018-05-02T02:39:24.606Z,99342.44
2018-05-02T02:39:55.859Z,99341.16
2018-05-02T02:40:27.073Z,99344.34
2018-05-02T02:40:58.258Z,99344.03
2018-05-02T02:41:29.468Z,99344.03
2018-05-02T02:42:00.677Z,99341.94
2018-05-02T02:42:31.896Z,99342.37
2018-05-02T02:43:03.114Z,99341.05
2018-05-02T02:43:34.374Z,99345.03
2018-05-02T02:44:05.604Z,99345.11
2018-05-02T02:44:36.829Z,99341.61
2018-05-02T02:45:08.036Z,99340.30
2018-05-02T02:45:39.242Z,99339.59
2018-05-02T02:46:10.501Z,99341.78
2018-05-02T02:46:41.710Z,99341.34
2018-05-02T02:47:12.920Z,99341.81
2018-05-02T02:47:44.135Z,99345.80
2018-05-02T02:48:15.894Z,99338.84
2018-05-02T02:48:47.102Z,99348.06
2018-05-02T02:49:18.302Z,99341.46
2018-05-02T02:49:49.573Z,99349.77
2018-05-02T02:50:20.801Z,99348.10
2018-05-02T02:50:52.043Z,99344.61
2018-05-02T02:51:23.294Z,99346.39
2018-05-02T02:51:54.508Z,99349.94
2018-05-02T02:52:25.722Z,99353.03
2018-05-02T02:52:56.967Z,99354.35
2018-05-02T02:53:28.172Z,99350.92
2018-05-02T02:53:59.381Z,99357.13
2018-05-02T02:54:30.599Z,99348.91
2018-05-02T02:55:01.862Z,99352.05
2018-05-02T02:55:33.085Z,99348.27
2018-05-02T02:56:04.321Z,99356.27
2018-05-02T02:56:35.545Z,99351.61
2018-05-02T02:57:06.761Z,99345.09
2018-05-02T02:57:38.016Z,99347.76
2018-05-02T02:58:09.237Z,99348.67
2018-05-02T02:58:40.493Z,99346.96
2018-05-02T02:59:11.741Z,99353.13
2018-05-02T02:59:42.965Z,99346.17
2018-05-02T03:00:14.191Z,99353.60
2018-05-02T03:00:45.400Z,99354.16
2018-05-02T03:01:16.632Z,99352.16
2018-05-02T03:01:47.884Z,99348.31
2018-05-02T03:02:19.089Z,99350.17
2018-05-02T03:02:50.332Z,99353.23
2018-05-02T03:03:21.549Z,99348.91
2018-05-02T03:03:52.791Z,99351.97
2018-05-02T03:04:24.015Z,99349.38
2018-05-02T03:04:55.224Z,99353.79
2018-05-02T03:05:26.446Z,99357.69
2018-05-02T03:05:57.662Z,99355.50
2018-05-02T03:06:28.869Z,99359.47
2018-05-02T03:07:00.151Z,99353.36
2018-05-02T03:07:31.413Z,99356.86
2018-05-02T03:08:02.626Z,99357.84
2018-05-02T03:08:33.855Z,99356.14
2018-05-02T03:09:05.078Z,99356.66
2018-05-02T03:09:36.293Z,99353.63
2018-05-02T03:10:07.487Z,99357.89
2018-05-02T03:10:38.716Z,99359.16
2018-05-02T03:11:09.935Z,99356.02
2018-05-02T03:11:41.200Z,99356.10
2018-05-02T03:12:12.403Z,99357.89
2018-05-02T03:12:43.672Z,99357.48
2018-05-02T03:13:14.867Z,99352.28
2018-05-02T03:13:46.073Z,99349.77
2018-05-02T03:14:17.345Z,99355.05
2018-05-02T03:14:48.552Z,99355.10
2018-05-02T03:15:19.771Z,99353.75
2018-05-02T03:15:50.987Z,99354.66
2018-05-02T03:16:22.182Z,99354.23
2018-05-02T03:16:53.436Z,99359.51
2018-05-02T03:17:24.659Z,99352.08
2018-05-02T03:17:56.017Z,99350.41
2018-05-02T03:18:27.222Z,99354.34
2018-05-02T03:18:58.433Z,99344.77
2018-05-02T03:19:29.652Z,99355.29
2018-05-02T03:20:00.921Z,99354.38
2018-05-02T03:20:32.126Z,99354.06
2018-05-02T03:21:03.334Z,99352.02
2018-05-02T03:21:34.556Z,99351.66
2018-05-02T03:22:05.764Z,99352.50
2018-05-02T03:22:36.976Z,99353.81
2018-05-02T03:23:08.233Z,99356.47
2018-05-02T03:23:39.440Z,99353.45
2018-05-02T03:24:10.649Z,99355.64
2018-05-02T03:24:41.873Z,99351.75
2018-05-02T03:25:13.093Z,99354.84
2018-05-02T03:25:44.297Z,99360.95
2018-05-02T03:26:15.494Z,99357.90
2018-05-02T03:26:46.708Z,99354.88
2018-05-02T03:27:17.916Z,99352.26
2018-05-02T03:27:49.110Z,99353.41
2018-05-02T03:28:20.358Z,99355.09
2018-05-02T03:28:51.583Z,99356.20
2018-05-02T03:29:22.787Z,99354.27
2018-05-02T03:29:54.008Z,99356.22
2018-05-02T03:30:25.261Z,99356.42
2018-05-02T03:30:56.512Z,99353.55
2018-05-02T03:31:27.721Z,99355.87
2018-05-02T03:31:58.952Z,99351.29
2018-05-02T03:32:30.161Z,99353.23
2018-05-02T03:33:01.369Z,99352.52
2018-05-02T03:33:32.571Z,99358.41
2018-05-02T03:34:03.831Z,99354.75
2018-05-02T03:34:35.042Z,99356.73
2018-05-02T03:35:06.293Z,99355.13
2018-05-02T03:35:37.514Z,99358.75
2018-05-02T03:36:08.723Z,99361.91
2018-05-02T03:36:39.933Z,99361.15
2018-05-02T03:37:11.165Z,99354.20
2018-05-02T03:37:42.375Z,99358.48
2018-05-02T03:38:13.616Z,99362.48
2018-05-02T03:38:44.852Z,99360.69
2018-05-02T03:39:16.056Z,99363.66
2018-05-02T03:39:47.264Z,99359.52
2018-05-02T03:40:18.473Z,99360.61
2018-05-02T03:40:49.683Z,99356.42
2018-05-02T03:41:20.900Z,99354.92
2018-05-02T03:41:52.122Z,99356.94
2018-05-02T03:42:23.348Z,99354.62
2018-05-02T03:42:54.608Z,99359.25
2018-05-02T03:43:25.820Z,99361.98
2018-05-02T03:43:57.066Z,99357.65
2018-05-02T03:44:28.285Z,99361.55
2018-05-02T03:44:59.507Z,99362.91
2018-05-02T03:45:30.713Z,99360.58
2018-05-02T03:46:01.957Z,99358.65
2018-05-02T03:46:33.232Z,99363.60
2018-05-02T03:47:04.445Z,99361.44
2018-05-02T03:47:35.683Z,99361.05
2018-05-02T03:48:06.897Z,99358.27
2018-05-02T03:48:39.112Z,99360.73
2018-05-02T03:49:10.363Z,99358.99
2018-05-02T03:49:41.668Z,99365.39
2018-05-02T03:50:12.885Z,99361.17
2018-05-02T03:50:44.146Z,99370.56
2018-05-02T03:51:15.349Z,99365.59
2018-05-02T03:51:46.567Z,99364.48
2018-05-02T03:52:17.788Z,99364.81
2018-05-02T03:52:48.990Z,99369.10
2018-05-02T03:53:20.206Z,99362.46
2018-05-02T03:53:51.409Z,99364.12
2018-05-02T03:54:22.659Z,99367.00
2018-05-02T03:54:53.899Z,99366.70
2018-05-02T03:55:25.110Z,99364.88
2018-05-02T03:55:56.322Z,99363.39
2018-05-02T03:56:27.545Z,99370.34
2018-05-02T03:56:58.800Z,99368.74
2018-05-02T03:57:30.009Z,99369.84
2018-05-02T03:58:01.239Z,99372.81
2018-05-02T03:58:32.449Z,99371.78
2018-05-02T03:59:03.661Z,99368.26
2018-05-02T03:59:34.873Z,99373.94
2018-05-02T04:00:06.093Z,99378.95
2018-05-02T04:00:37.310Z,99371.39
2018-05-02T04:01:08.534Z,99380.91
2018-05-02T04:01:40.420Z,99376.36
2018-05-02T04:02:11.689Z,99372.42
2018-05-02T04:02:42.906Z,99372.38
2018-05-02T04:03:14.116Z,99376.70
2018-05-02T04:03:45.336Z,99372.97
2018-05-02T04:04:16.568Z,99379.46
2018-05-02T04:04:47.778Z,99377.77
2018-05-02T04:05:18.993Z,99378.62
2018-05-02T04:05:50.215Z,99372.32
2018-05-02T04:06:21.421Z,99378.55
2018-05-02T04:06:52.640Z,99380.70
2018-05-02T04:07:23.883Z,99378.50
2018-05-02T04:07:55.097Z,99379.47
2018-05-02T04:08:26.362Z,99379.46
2018-05-02T04:08:57.625Z,99381.06
2018-05-02T04:09:28.831Z,99380.72
2018-05-02T04:10:00.054Z,99382.74
2018-05-02T04:10:31.260Z,99386.21
2018-05-02T04:11:02.468Z,99381.79
2018-05-02T04:11:33.676Z,99389.92
2018-05-02T04:12:04.899Z,99389.27
2018-05-02T04:12:36.139Z,99388.09
2018-05-02T04:13:07.413Z,99388.64
2018-05-02T04:13:38.627Z,99390.67
2018-05-02T04:14:09.832Z,99388.59
2018-05-02T04:14:41.041Z,99391.81
2018-05-02T04:15:12.273Z,99395.70
2018-05-02T04:15:43.478Z,99398.16
2018-05-02T04:16:14.693Z,99396.66
2018-05-02T04:16:45.899Z,99399.12
2018-05-02T04:17:17.140Z,99402.84
2018-05-02T04:17:48.357Z,99403.44
2018-05-02T04:18:19.623Z,99399.77
2018-05-02T04:18:50.847Z,99399.52
2018-05-02T04:19:22.061Z,99396.97
2018-05-02T04:19:53.266Z,99401.86
2018-05-02T04:20:24.498Z,99399.83
2018-05-02T04:20:55.702Z,99397.90
2018-05-02T04:21:26.909Z,99400.53
2018-05-02T04:21:58.121Z,99397.13
2018-05-02T04:22:29.329Z,99394.13
2018-05-02T04:23:00.554Z,99393.16
2018-05-02T04:23:31.806Z,99402.44
2018-05-02T04:24:03.036Z,99401.25
2018-05-02T04:24:34.250Z,99403.79
2018-05-02T04:25:05.461Z,99401.70
2018-05-02T04:25:36.695Z,99406.61
2018-05-02T04:26:07.927Z,99400.50
2018-05-02T04:26:39.128Z,99404.75
2018-05-02T04:27:10.361Z,99398.67
2018-05-02T04:27:41.579Z,99403.17
2018-05-02T04:28:12.859Z,99400.24
2018-05-02T04:28:44.110Z,99400.94
2018-05-02T04:29:15.320Z,99404.06
2018-05-02T04:29:46.528Z,99403.91
2018-05-02T04:30:17.752Z,99410.44
2018-05-02T04:30:48.978Z,99406.33
2018-05-02T04:31:20.189Z,99405.23
2018-05-02T04:31:51.404Z,99401.70
2018-05-02T04:32:22.613Z,99404.06
2018-05-02T04:32:53.841Z,99405.48
2018-05-02T04:33:25.100Z,99401.07
2018-05-02T04:33:56.352Z,99398.91
2018-05-02T04:34:27.595Z,99401.39
2018-05-02T04:34:58.849Z,99405.81
2018-05-02T04:35:30.073Z,99405.81
2018-05-02T04:36:01.287Z,99406.86
2018-05-02T04:36:32.500Z,99404.32
2018-05-02T04:37:03.922Z,99406.56
2018-05-02T04:37:35.124Z,99404.44
2018-05-02T04:38:06.336Z,99404.20
2018-05-02T04:38:37.550Z,99403.12
2018-05-02T04:39:08.790Z,99407.41
2018-05-02T04:39:40.064Z,99407.27
2018-05-02T04:40:11.280Z,99411.58
2018-05-02T04:40:42.492Z,99406.78
2018-05-02T04:41:13.701Z,99412.64
2018-05-02T04:41:44.908Z,99419.44
2018-05-02T04:42:16.113Z,99413.05
2018-05-02T04:42:47.324Z,99415.36
2018-05-02T04:43:18.536Z,99422.78
2018-05-02T04:43:49.748Z,99415.86
2018-05-02T04:44:20.964Z,99409.20
2018-05-02T04:44:52.229Z,99413.59
2018-05-02T04:45:23.452Z,99416.96
2018-05-02T04:45:54.709Z,99414.83
2018-05-02T04:46:25.935Z,99409.62
2018-05-02T04:46:57.152Z,99414.48
2018-05-02T04:47:28.402Z,99411.81
2018-05-02T04:47:59.616Z,99414.02
2018-05-02T04:48:30.889Z,99410.23
2018-05-02T04:49:02.101Z,99411.83
2018-05-02T04:49:33.317Z,99405.62
2018-05-02T04:50:04.541Z,99407.16
2018-05-02T04:50:35.756Z,99407.52
2018-05-02T04:51:07.139Z,99403.95
2018-05-02T04:51:38.366Z,99407.20
2018-05-02T04:52:09.603Z,99415.47
2018-05-02T04:52:40.920Z,99406.53
2018-05-02T04:53:12.091Z,99407.30
2018-05-02T04:53:43.362Z,99408.84
2018-05-02T04:54:14.579Z,99412.56
2018-05-02T04:54:45.803Z,99408.41
2018-05-02T04:55:17.078Z,99411.27
2018-05-02T04:55:48.292Z,99418.88
2018-05-02T04:56:19.607Z,99415.14
2018-05-02T04:56:50.819Z,99416.76
2018-05-02T04:57:22.090Z,99418.48
2018-05-02T04:57:53.300Z,99415.73
2018-05-02T04:58:24.533Z,99420.13
2018-05-02T04:58:55.749Z,99413.77
2018-05-02T04:59:26.978Z,99418.83
2018-05-02T04:59:58.202Z,99419.13
2018-05-02T05:00:29.428Z,99419.41
2018-05-02T05:01:00.623Z,99416.13
2018-05-02T05:01:31.941Z,99397.59
2018-05-02T05:02:03.138Z,99417.47
2018-05-02T05:02:34.365Z,99417.39
2018-05-02T05:03:05.569Z,99413.77
2018-05-02T05:03:36.787Z,99422.47
2018-05-02T05:04:07.981Z,99394.88
2018-05-02T05:04:39.189Z,99416.13
2018-05-02T05:05:10.396Z,99410.24
2018-05-02T05:05:41.624Z,99412.95
2018-05-02T05:06:12.839Z,99413.55
2018-05-02T05:06:44.166Z,99412.46
2018-05-02T05:07:15.362Z,99416.98
2018-05-02T05:07:46.571Z,99412.91
2018-05-02T05:08:17.777Z,99418.95
2018-05-02T05:08:49.005Z,99416.61
2018-05-02T05:09:20.272Z,99416.36
2018-05-02T05:09:51.476Z,99417.95
2018-05-02T05:10:22.685Z,99415.88
2018-05-02T05:10:53.953Z,99409.59
2018-05-02T05:11:25.190Z,99407.90
2018-05-02T05:11:56.448Z,99410.91
2018-05-02T05:12:27.708Z,99409.05
2018-05-02T05:12:58.916Z,99414.59
2018-05-02T05:13:30.125Z,99412.19
2018-05-02T05:14:01.337Z,99406.55
2018-05-02T05:14:32.541Z,99411.43
2018-05-02T05:15:03.766Z,99409.51
2018-05-02T05:15:34.977Z,99405.89
2018-05-02T05:16:06.195Z,99413.58
2018-05-02T05:16:37.414Z,99413.16
2018-05-02T05:17:08.660Z,99406.91
2018-05-02T05:17:39.876Z,99410.10
2018-05-02T05:18:11.117Z,99410.88
2018-05-02T05:18:42.325Z,99410.85
2018-05-02T05:19:13.589Z,99411.36
2018-05-02T05:19:44.809Z,99415.23
2018-05-02T05:20:16.012Z,99418.30
2018-05-02T05:20:47.279Z,99409.86
2018-05-02T05:21:18.518Z,99412.77
2018-05-02T05:21:49.745Z,99412.88
2018-05-02T05:22:20.979Z,99408.66
2018-05-02T05:22:52.201Z,99406.97
2018-05-02T05:23:23.404Z,99410.44
2018-05-02T05:23:54.610Z,99410.22
2018-05-02T05:24:25.829Z,99410.25
2018-05-02T05:24:57.042Z,99414.11
2018-05-02T05:25:28.257Z,99412.52
2018-05-02T05:25:59.514Z,99412.09
2018-05-02T05:26:30.729Z,99413.68
2018-05-02T05:27:01.942Z,99408.77
2018-05-02T05:27:33.145Z,99408.19
2018-05-02T05:28:04.369Z,99410.66
2018-05-02T05:28:35.593Z,99406.67
2018-05-02T05:29:06.811Z,99412.30
2018-05-02T05:29:38.038Z,99410.86
2018-05-02T05:30:09.251Z,99411.84
2018-05-02T05:30:40.469Z,99410.02
2018-05-02T05:31:11.681Z,99407.83
2018-05-02T05:31:42.898Z,99400.78
2018-05-02T05:32:14.107Z,99410.63
2018-05-02T05:32:45.318Z,99411.88
2018-05-02T05:33:16.565Z,99410.70
2018-05-02T05:33:47.822Z,99410.05
2018-05-02T05:34:19.045Z,99411.89
2018-05-02T05:34:50.257Z,99407.58
2018-05-02T05:35:21.484Z,99412.38
2018-05-02T05:35:52.725Z,99413.00
2018-05-02T05:36:23.942Z,99413.39
2018-05-02T05:36:55.158Z,99410.55
2018-05-02T05:37:26.398Z,99412.27
2018-05-02T05:37:57.605Z,99414.31
2018-05-02T05:38:28.823Z,99415.08
2018-05-02T05:39:00.073Z,99415.66
2018-05-02T05:39:31.266Z,99417.17
2018-05-02T05:40:02.468Z,99417.06
2018-05-02T05:40:33.677Z,99424.77
2018-05-02T05:41:04.932Z,99418.30
2018-05-02T05:41:36.206Z,99421.08
2018-05-02T05:42:07.421Z,99414.73
2018-05-02T05:42:38.640Z,99420.19
2018-05-02T05:43:09.905Z,99413.93
2018-05-02T05:43:41.157Z,99419.89
2018-05-02T05:44:12.398Z,99413.70
2018-05-02T05:44:43.609Z,99415.03
2018-05-02T05:45:14.816Z,99425.36
2018-05-02T05:45:46.028Z,99421.97
2018-05-02T05:46:17.255Z,99422.11
2018-05-02T05:46:48.465Z,99421.31
2018-05-02T05:47:19.745Z,99425.08
2018-05-02T05:47:50.952Z,99427.05
2018-05-02T05:48:22.167Z,99426.47
2018-05-02T05:48:53.413Z,99422.95
2018-05-02T05:49:24.621Z,99418.28
2018-05-02T05:49:55.838Z,99425.55
2018-05-02T05:50:27.070Z,99424.64
2018-05-02T05:50:58.268Z,99426.92
2018-05-02T05:51:29.465Z,99423.97
2018-05-02T05:52:00.687Z,99426.14
2018-05-02T05:52:31.983Z,99431.69
2018-05-02T05:53:03.313Z,99428.49
2018-05-02T05:53:34.545Z,99426.58
2018-05-02T05:54:05.865Z,99430.98
2018-05-02T05:54:37.151Z,99430.66
2018-05-02T05:55:08.535Z,99432.13
2018-05-02T05:55:39.754Z,99431.27
2018-05-02T05:56:10.991Z,99433.36
2018-05-02T05:56:42.273Z,99429.14
2018-05-02T05:57:13.530Z,99439.44
2018-05-02T05:57:44.824Z,99439.90
2018-05-02T05:58:16.089Z,99433.66
2018-05-02T05:58:47.322Z,99437.61
2018-05-02T05:59:18.552Z,99435.11
2018-05-02T05:59:49.819Z,99429.45
2018-05-02T06:00:21.226Z,99439.00
2018-05-02T06:00:52.473Z,99438.66
2018-05-02T06:01:23.692Z,99434.41
2018-05-02T06:01:54.894Z,99434.25
2018-05-02T06:02:26.145Z,99433.53
2018-05-02T06:02:57.380Z,99423.58
2018-05-02T06:03:28.623Z,99439.55
2018-05-02T06:03:59.979Z,99438.11
2018-05-02T06:04:31.240Z,99434.29
2018-05-02T06:05:02.510Z,99432.14
2018-05-02T06:05:33.736Z,99436.11
2018-05-02T06:06:04.960Z,99438.33
2018-05-02T06:06:36.169Z,99435.11